sensor_id;sensor_type;location;lat;lon;timestamp;temperature;humidity
52209;DHT22;38507;53.132;6.394;2022-12-18T00:02:13;-3.50;99.90
52209;DHT22;38507;53.132;6.394;2022-12-18T00:04:38;-3.50;99.90
52209;DHT22;38507;53.132;6.394;2022-12-18T00:07:04;-3.50;99.90
52209;DHT22;38507;53.132;6.394;2022-12-18T00:09:30;-3.60;99.90
52209;DHT22;38507;53.132;6.394;2022-12-18T00:11:55;-3.60;99.90
52209;DHT22;38507;53.132;6.394;2022-12-18T00:14:21;-3.60;99.90
52209;DHT22;38507;53.132;6.394;2022-12-18T00:16:46;-3.60;99.90
52209;DHT22;38507;53.132;6.394;2022-12-18T00:19:13;-3.60;99.90
52209;DHT22;38507;53.132;6.394;2022-12-18T00:21:39;-3.60;99.90
52209;DHT22;38507;53.132;6.394;2022-12-18T00:24:05;-3.60;99.90
52209;DHT22;38507;53.132;6.394;2022-12-18T00:26:33;-3.60;99.90
52209;DHT22;38507;53.132;6.394;2022-12-18T00:29:01;-3.60;99.90
52209;DHT22;38507;53.132;6.394;2022-12-18T00:31:27;-3.70;99.90
52209;DHT22;38507;53.132;6.394;2022-12-18T00:33:56;-3.70;99.90
52209;DHT22;38507;53.132;6.394;2022-12-18T00:36:28;-3.60;99.90
52209;DHT22;38507;53.132;6.394;2022-12-18T00:38:55;-3.70;99.90
52209;DHT22;38507;53.132;6.394;2022-12-18T00:41:21;-3.70;99.90
52209;DHT22;38507;53.132;6.394;2022-12-18T00:44:06;-3.70;99.90
52209;DHT22;38507;53.132;6.394;2022-12-18T00:46:33;-3.70;99.90
52209;DHT22;38507;53.132;6.394;2022-12-18T00:48:59;-3.70;99.90
52209;DHT22;38507;53.132;6.394;2022-12-18T00:51:25;-3.70;99.90
52209;DHT22;38507;53.132;6.394;2022-12-18T00:53:51;-3.80;99.90
52209;DHT22;38507;53.132;6.394;2022-12-18T00:56:16;-3.80;99.90
52209;DHT22;38507;53.132;6.394;2022-12-18T00:58:42;-3.80;99.90
52209;DHT22;38507;53.132;6.394;2022-12-18T01:01:07;-3.80;99.90
52209;DHT22;38507;53.132;6.394;2022-12-18T01:03:34;-3.80;99.90
52209;DHT22;38507;53.132;6.394;2022-12-18T01:06:04;-3.80;99.90
52209;DHT22;38507;53.132;6.394;2022-12-18T01:08:30;-3.80;99.90
52209;DHT22;38507;53.132;6.394;2022-12-18T01:10:56;-3.80;99.90
52209;DHT22;38507;53.132;6.394;2022-12-18T01:13:21;-3.70;99.90
52209;DHT22;38507;53.132;6.394;2022-12-18T01:15:50;-3.90;99.90
52209;DHT22;38507;53.132;6.394;2022-12-18T01:18:16;-3.90;99.90
52209;DHT22;38507;53.132;6.394;2022-12-18T01:20:42;-3.90;99.90
52209;DHT22;38507;53.132;6.394;2022-12-18T01:23:08;-3.90;99.90
52209;DHT22;38507;53.132;6.394;2022-12-18T01:25:35;-3.90;99.90
52209;DHT22;38507;53.132;6.394;2022-12-18T01:28:01;-4.00;99.90
52209;DHT22;38507;53.132;6.394;2022-12-18T01:30:27;-3.40;99.90
52209;DHT22;38507;53.132;6.394;2022-12-18T01:32:52;-4.00;99.90
52209;DHT22;38507;53.132;6.394;2022-12-18T01:35:18;-4.10;99.90
52209;DHT22;38507;53.132;6.394;2022-12-18T01:37:44;-4.10;99.90
52209;DHT22;38507;53.132;6.394;2022-12-18T01:40:10;-4.10;99.90
52209;DHT22;38507;53.132;6.394;2022-12-18T01:42:36;-3.90;99.90
52209;DHT22;38507;53.132;6.394;2022-12-18T01:50:18;-4.20;99.90
52209;DHT22;38507;53.132;6.394;2022-12-18T01:52:52;-4.30;99.90
52209;DHT22;38507;53.132;6.394;2022-12-18T01:55:22;-4.30;99.90
52209;DHT22;38507;53.132;6.394;2022-12-18T01:57:52;-4.30;99.90
52209;DHT22;38507;53.132;6.394;2022-12-18T02:00:20;-4.30;99.90
52209;DHT22;38507;53.132;6.394;2022-12-18T02:02:47;-4.40;99.90
52209;DHT22;38507;53.132;6.394;2022-12-18T02:05:16;-4.40;99.90
52209;DHT22;38507;53.132;6.394;2022-12-18T02:08:02;-4.50;99.90
52209;DHT22;38507;53.132;6.394;2022-12-18T02:10:38;-4.50;99.90
52209;DHT22;38507;53.132;6.394;2022-12-18T02:13:29;-4.50;99.90
52209;DHT22;38507;53.132;6.394;2022-12-18T02:16:06;-4.60;99.90
52209;DHT22;38507;53.132;6.394;2022-12-18T02:18:42;-4.60;99.90
52209;DHT22;38507;53.132;6.394;2022-12-18T02:24:17;-4.60;99.90
52209;DHT22;38507;53.132;6.394;2022-12-18T02:26:50;-4.60;99.90
52209;DHT22;38507;53.132;6.394;2022-12-18T02:29:24;-4.60;99.90
52209;DHT22;38507;53.132;6.394;2022-12-18T02:31:56;-4.70;99.90
52209;DHT22;38507;53.132;6.394;2022-12-18T02:34:25;-4.70;99.90
52209;DHT22;38507;53.132;6.394;2022-12-18T02:36:52;-4.70;99.90
52209;DHT22;38507;53.132;6.394;2022-12-18T02:39:19;-4.70;99.90
52209;DHT22;38507;53.132;6.394;2022-12-18T02:41:47;-4.70;99.90
52209;DHT22;38507;53.132;6.394;2022-12-18T02:44:14;-4.70;99.90
52209;DHT22;38507;53.132;6.394;2022-12-18T02:46:43;-4.70;99.90
52209;DHT22;38507;53.132;6.394;2022-12-18T03:00:43;-4.80;99.90
52209;DHT22;38507;53.132;6.394;2022-12-18T03:03:19;-4.80;99.90
52209;DHT22;38507;53.132;6.394;2022-12-18T03:05:52;-4.80;99.90
52209;DHT22;38507;53.132;6.394;2022-12-18T03:08:27;-4.80;99.90
52209;DHT22;38507;53.132;6.394;2022-12-18T03:11:00;-4.90;99.90
52209;DHT22;38507;53.132;6.394;2022-12-18T03:13:33;-4.90;99.90
52209;DHT22;38507;53.132;6.394;2022-12-18T03:16:02;-4.90;99.90
52209;DHT22;38507;53.132;6.394;2022-12-18T03:21:05;-5.00;99.90
52209;DHT22;38507;53.132;6.394;2022-12-18T03:23:35;-5.00;99.90
52209;DHT22;38507;53.132;6.394;2022-12-18T03:26:05;-5.00;99.90
52209;DHT22;38507;53.132;6.394;2022-12-18T03:28:39;-5.00;99.90
52209;DHT22;38507;53.132;6.394;2022-12-18T03:31:08;-5.00;99.90
52209;DHT22;38507;53.132;6.394;2022-12-18T03:33:39;-5.10;99.90
52209;DHT22;38507;53.132;6.394;2022-12-18T03:36:06;-5.10;99.90
52209;DHT22;38507;53.132;6.394;2022-12-18T03:38:32;-5.10;99.90
52209;DHT22;38507;53.132;6.394;2022-12-18T03:43:52;-5.20;99.90
52209;DHT22;38507;53.132;6.394;2022-12-18T03:46:30;-5.20;99.90
52209;DHT22;38507;53.132;6.394;2022-12-18T03:49:10;-5.20;99.90
52209;DHT22;38507;53.132;6.394;2022-12-18T03:51:39;-5.20;99.90
52209;DHT22;38507;53.132;6.394;2022-12-18T03:54:08;-5.20;99.90
52209;DHT22;38507;53.132;6.394;2022-12-18T03:56:40;-5.30;99.90
52209;DHT22;38507;53.132;6.394;2022-12-18T03:59:08;-5.20;99.90
52209;DHT22;38507;53.132;6.394;2022-12-18T04:01:37;-5.20;99.90
52209;DHT22;38507;53.132;6.394;2022-12-18T04:04:04;-5.30;99.90
52209;DHT22;38507;53.132;6.394;2022-12-18T04:06:32;-5.30;99.90
52209;DHT22;38507;53.132;6.394;2022-12-18T04:08:58;-5.30;99.90
52209;DHT22;38507;53.132;6.394;2022-12-18T04:11:24;-5.30;99.90
52209;DHT22;38507;53.132;6.394;2022-12-18T04:13:50;-5.30;99.90
52209;DHT22;38507;53.132;6.394;2022-12-18T04:16:20;-5.30;99.90
52209;DHT22;38507;53.132;6.394;2022-12-18T04:18:46;-5.30;99.90
52209;DHT22;38507;53.132;6.394;2022-12-18T04:21:11;-5.40;99.90
52209;DHT22;38507;53.132;6.394;2022-12-18T04:23:37;-5.40;99.90
52209;DHT22;38507;53.132;6.394;2022-12-18T04:26:02;-5.40;99.90
52209;DHT22;38507;53.132;6.394;2022-12-18T04:28:28;-5.40;99.90
52209;DHT22;38507;53.132;6.394;2022-12-18T04:30:54;-5.40;99.90
52209;DHT22;38507;53.132;6.394;2022-12-18T04:33:19;-5.50;99.90
52209;DHT22;38507;53.132;6.394;2022-12-18T04:35:45;-5.50;99.90
52209;DHT22;38507;53.132;6.394;2022-12-18T04:38:11;-5.50;99.90
52209;DHT22;38507;53.132;6.394;2022-12-18T04:40:37;-5.50;99.90
52209;DHT22;38507;53.132;6.394;2022-12-18T04:43:03;-5.50;99.90
52209;DHT22;38507;53.132;6.394;2022-12-18T04:45:30;-5.50;99.90
52209;DHT22;38507;53.132;6.394;2022-12-18T04:47:57;-5.50;99.90
52209;DHT22;38507;53.132;6.394;2022-12-18T04:50:23;-5.50;99.90
52209;DHT22;38507;53.132;6.394;2022-12-18T04:52:49;-5.60;99.90
52209;DHT22;38507;53.132;6.394;2022-12-18T04:55:15;-5.50;99.90
52209;DHT22;38507;53.132;6.394;2022-12-18T04:57:41;-5.60;99.90
52209;DHT22;38507;53.132;6.394;2022-12-18T05:00:08;-5.60;99.90
52209;DHT22;38507;53.132;6.394;2022-12-18T05:02:34;-5.60;99.90
52209;DHT22;38507;53.132;6.394;2022-12-18T05:04:59;-4.60;99.90
52209;DHT22;38507;53.132;6.394;2022-12-18T05:07:25;-5.60;99.90
52209;DHT22;38507;53.132;6.394;2022-12-18T05:09:51;-5.60;99.90
52209;DHT22;38507;53.132;6.394;2022-12-18T05:12:16;-5.60;99.90
52209;DHT22;38507;53.132;6.394;2022-12-18T05:14:42;-5.60;99.90
52209;DHT22;38507;53.132;6.394;2022-12-18T05:17:07;-5.70;99.90
52209;DHT22;38507;53.132;6.394;2022-12-18T05:19:33;-5.70;99.90
52209;DHT22;38507;53.132;6.394;2022-12-18T05:21:59;-5.60;99.90
52209;DHT22;38507;53.132;6.394;2022-12-18T05:24:24;-5.70;99.90
52209;DHT22;38507;53.132;6.394;2022-12-18T05:26:50;-5.70;99.90
52209;DHT22;38507;53.132;6.394;2022-12-18T05:29:16;-5.70;99.90
52209;DHT22;38507;53.132;6.394;2022-12-18T05:31:41;-5.70;99.90
52209;DHT22;38507;53.132;6.394;2022-12-18T05:34:07;-5.70;99.90
52209;DHT22;38507;53.132;6.394;2022-12-18T05:36:32;-5.70;99.90
52209;DHT22;38507;53.132;6.394;2022-12-18T05:38:58;-5.70;99.90
52209;DHT22;38507;53.132;6.394;2022-12-18T05:41:25;-5.80;99.90
52209;DHT22;38507;53.132;6.394;2022-12-18T05:43:51;-5.80;99.90
52209;DHT22;38507;53.132;6.394;2022-12-18T05:46:17;-5.80;99.90
52209;DHT22;38507;53.132;6.394;2022-12-18T05:48:43;-5.80;99.90
52209;DHT22;38507;53.132;6.394;2022-12-18T05:51:15;-5.80;99.90
52209;DHT22;38507;53.132;6.394;2022-12-18T05:53:41;-5.80;99.90
52209;DHT22;38507;53.132;6.394;2022-12-18T05:56:10;-5.90;99.90
52209;DHT22;38507;53.132;6.394;2022-12-18T05:58:37;-5.80;99.90
52209;DHT22;38507;53.132;6.394;2022-12-18T06:01:13;-5.90;99.90
52209;DHT22;38507;53.132;6.394;2022-12-18T06:03:39;-5.90;99.90
52209;DHT22;38507;53.132;6.394;2022-12-18T06:06:16;-5.90;99.90
52209;DHT22;38507;53.132;6.394;2022-12-18T06:08:43;-5.90;99.90
52209;DHT22;38507;53.132;6.394;2022-12-18T06:11:09;-5.90;99.90
52209;DHT22;38507;53.132;6.394;2022-12-18T06:13:35;-5.90;99.90
52209;DHT22;38507;53.132;6.394;2022-12-18T06:16:07;-6.00;99.90
52209;DHT22;38507;53.132;6.394;2022-12-18T06:18:33;-6.00;99.90
52209;DHT22;38507;53.132;6.394;2022-12-18T06:20:59;-6.00;99.90
52209;DHT22;38507;53.132;6.394;2022-12-18T06:23:25;-6.00;99.90
52209;DHT22;38507;53.132;6.394;2022-12-18T06:25:51;-6.00;99.90
52209;DHT22;38507;53.132;6.394;2022-12-18T06:28:17;-6.00;99.90
52209;DHT22;38507;53.132;6.394;2022-12-18T06:30:46;-6.00;99.90
52209;DHT22;38507;53.132;6.394;2022-12-18T06:33:14;-6.00;99.90
52209;DHT22;38507;53.132;6.394;2022-12-18T06:35:40;-6.00;99.90
52209;DHT22;38507;53.132;6.394;2022-12-18T06:38:06;-6.00;99.90
52209;DHT22;38507;53.132;6.394;2022-12-18T06:40:31;-6.00;99.90
52209;DHT22;38507;53.132;6.394;2022-12-18T06:42:57;-6.10;99.90
52209;DHT22;38507;53.132;6.394;2022-12-18T06:45:23;-6.10;99.90
52209;DHT22;38507;53.132;6.394;2022-12-18T06:47:49;-6.10;99.90
52209;DHT22;38507;53.132;6.394;2022-12-18T06:50:15;-6.10;99.90
52209;DHT22;38507;53.132;6.394;2022-12-18T06:52:41;-5.60;99.90
52209;DHT22;38507;53.132;6.394;2022-12-18T06:55:08;-6.10;99.90
52209;DHT22;38507;53.132;6.394;2022-12-18T06:57:33;-6.10;99.90
52209;DHT22;38507;53.132;6.394;2022-12-18T06:59:59;-6.10;99.90
52209;DHT22;38507;53.132;6.394;2022-12-18T07:02:25;-6.10;99.90
52209;DHT22;38507;53.132;6.394;2022-12-18T07:04:51;-6.10;99.90
52209;DHT22;38507;53.132;6.394;2022-12-18T07:07:16;-6.10;99.90
52209;DHT22;38507;53.132;6.394;2022-12-18T07:09:42;-6.10;99.90
52209;DHT22;38507;53.132;6.394;2022-12-18T07:12:08;-6.10;99.90
52209;DHT22;38507;53.132;6.394;2022-12-18T07:14:34;-6.10;99.90
52209;DHT22;38507;53.132;6.394;2022-12-18T07:17:00;-6.10;99.90
52209;DHT22;38507;53.132;6.394;2022-12-18T07:19:25;-6.10;99.90
52209;DHT22;38507;53.132;6.394;2022-12-18T07:21:51;-6.00;99.90
52209;DHT22;38507;53.132;6.394;2022-12-18T07:24:17;-6.00;99.90
52209;DHT22;38507;53.132;6.394;2022-12-18T07:26:45;-6.00;99.90
52209;DHT22;38507;53.132;6.394;2022-12-18T07:29:10;-6.00;99.90
52209;DHT22;38507;53.132;6.394;2022-12-18T07:31:36;-6.00;99.90
52209;DHT22;38507;53.132;6.394;2022-12-18T07:34:01;-6.00;99.90
52209;DHT22;38507;53.132;6.394;2022-12-18T07:36:27;-6.00;99.90
52209;DHT22;38507;53.132;6.394;2022-12-18T07:38:53;-6.00;99.90
52209;DHT22;38507;53.132;6.394;2022-12-18T07:41:19;-5.90;99.90
52209;DHT22;38507;53.132;6.394;2022-12-18T07:43:45;-5.90;99.90
52209;DHT22;38507;53.132;6.394;2022-12-18T07:46:12;-5.90;99.90
52209;DHT22;38507;53.132;6.394;2022-12-18T07:48:40;-5.90;99.90
52209;DHT22;38507;53.132;6.394;2022-12-18T07:51:06;-5.90;99.90
52209;DHT22;38507;53.132;6.394;2022-12-18T07:53:33;-5.90;99.90
52209;DHT22;38507;53.132;6.394;2022-12-18T07:56:01;-5.90;99.90
52209;DHT22;38507;53.132;6.394;2022-12-18T07:58:28;-5.90;99.90
52209;DHT22;38507;53.132;6.394;2022-12-18T08:00:54;-5.80;99.90
52209;DHT22;38507;53.132;6.394;2022-12-18T08:03:26;-5.80;99.90
52209;DHT22;38507;53.132;6.394;2022-12-18T08:05:52;-5.80;99.90
52209;DHT22;38507;53.132;6.394;2022-12-18T08:08:18;-5.80;99.90
52209;DHT22;38507;53.132;6.394;2022-12-18T08:10:43;-5.80;99.90
52209;DHT22;38507;53.132;6.394;2022-12-18T08:13:09;-5.80;99.90
52209;DHT22;38507;53.132;6.394;2022-12-18T08:15:34;-5.70;99.90
52209;DHT22;38507;53.132;6.394;2022-12-18T08:18:00;-5.70;99.90
52209;DHT22;38507;53.132;6.394;2022-12-18T08:20:26;-5.70;99.90
52209;DHT22;38507;53.132;6.394;2022-12-18T08:22:51;-5.70;99.90
52209;DHT22;38507;53.132;6.394;2022-12-18T08:25:17;-5.60;99.90
52209;DHT22;38507;53.132;6.394;2022-12-18T08:27:42;-5.60;99.90
52209;DHT22;38507;53.132;6.394;2022-12-18T08:30:09;-5.60;99.90
52209;DHT22;38507;53.132;6.394;2022-12-18T08:32:35;-5.50;99.90
52209;DHT22;38507;53.132;6.394;2022-12-18T08:35:00;-5.50;99.90
52209;DHT22;38507;53.132;6.394;2022-12-18T08:37:26;-5.40;99.90
52209;DHT22;38507;53.132;6.394;2022-12-18T08:39:51;-5.40;99.90
52209;DHT22;38507;53.132;6.394;2022-12-18T08:42:17;-5.30;99.90
52209;DHT22;38507;53.132;6.394;2022-12-18T08:45:02;-5.30;99.90
52209;DHT22;38507;53.132;6.394;2022-12-18T08:47:28;-5.20;99.90
52209;DHT22;38507;53.132;6.394;2022-12-18T08:49:53;-5.20;99.90
52209;DHT22;38507;53.132;6.394;2022-12-18T08:52:19;-5.20;99.90
52209;DHT22;38507;53.132;6.394;2022-12-18T08:54:44;-5.10;99.90
52209;DHT22;38507;53.132;6.394;2022-12-18T08:57:10;-5.10;99.90
52209;DHT22;38507;53.132;6.394;2022-12-18T08:59:36;-5.00;99.90
52209;DHT22;38507;53.132;6.394;2022-12-18T09:02:01;-5.00;99.90
52209;DHT22;38507;53.132;6.394;2022-12-18T09:04:27;-5.00;99.90
52209;DHT22;38507;53.132;6.394;2022-12-18T09:06:52;-4.90;99.90
52209;DHT22;38507;53.132;6.394;2022-12-18T09:09:18;-4.90;99.90
52209;DHT22;38507;53.132;6.394;2022-12-18T09:11:43;-4.80;99.90
52209;DHT22;38507;53.132;6.394;2022-12-18T09:14:10;-4.70;99.90
52209;DHT22;38507;53.132;6.394;2022-12-18T09:16:35;-4.70;99.90
52209;DHT22;38507;53.132;6.394;2022-12-18T09:19:11;-4.60;99.90
52209;DHT22;38507;53.132;6.394;2022-12-18T09:21:36;-4.60;99.90
52209;DHT22;38507;53.132;6.394;2022-12-18T09:24:03;-4.50;99.90
52209;DHT22;38507;53.132;6.394;2022-12-18T09:26:29;-4.40;99.90
52209;DHT22;38507;53.132;6.394;2022-12-18T09:28:55;-4.30;99.90
52209;DHT22;38507;53.132;6.394;2022-12-18T09:31:22;-4.30;99.90
52209;DHT22;38507;53.132;6.394;2022-12-18T09:33:48;-4.20;99.90
52209;DHT22;38507;53.132;6.394;2022-12-18T09:36:16;-4.10;99.90
52209;DHT22;38507;53.132;6.394;2022-12-18T09:38:43;-4.00;99.90
52209;DHT22;38507;53.132;6.394;2022-12-18T09:44:05;-3.80;99.90
52209;DHT22;38507;53.132;6.394;2022-12-18T09:46:43;-3.70;99.90
52209;DHT22;38507;53.132;6.394;2022-12-18T09:49:15;-3.60;99.90
52209;DHT22;38507;53.132;6.394;2022-12-18T09:51:57;-3.60;99.90
52209;DHT22;38507;53.132;6.394;2022-12-18T09:54:41;-3.60;99.90
52209;DHT22;38507;53.132;6.394;2022-12-18T09:57:14;-3.50;99.90
52209;DHT22;38507;53.132;6.394;2022-12-18T09:59:41;-3.40;99.90
52209;DHT22;38507;53.132;6.394;2022-12-18T10:02:24;-3.40;99.90
52209;DHT22;38507;53.132;6.394;2022-12-18T10:05:03;-3.40;99.90
52209;DHT22;38507;53.132;6.394;2022-12-18T10:07:52;-3.30;99.90
52209;DHT22;38507;53.132;6.394;2022-12-18T10:13:07;-3.30;99.90
52209;DHT22;38507;53.132;6.394;2022-12-18T10:15:51;-3.30;99.90
52209;DHT22;38507;53.132;6.394;2022-12-18T10:21:43;-3.10;99.90
52209;DHT22;38507;53.132;6.394;2022-12-18T10:24:39;-3.00;99.90
52209;DHT22;38507;53.132;6.394;2022-12-18T10:27:17;-3.00;99.90
52209;DHT22;38507;53.132;6.394;2022-12-18T10:29:43;-2.90;99.90
52209;DHT22;38507;53.132;6.394;2022-12-18T10:32:18;-2.90;99.90
52209;DHT22;38507;53.132;6.394;2022-12-18T10:34:52;-2.90;99.90
52209;DHT22;38507;53.132;6.394;2022-12-18T10:37:21;-2.90;99.90
52209;DHT22;38507;53.132;6.394;2022-12-18T10:40:10;-2.90;99.90
52209;DHT22;38507;53.132;6.394;2022-12-18T10:42:36;-2.90;99.90
52209;DHT22;38507;53.132;6.394;2022-12-18T10:45:10;-2.90;99.90
52209;DHT22;38507;53.132;6.394;2022-12-18T10:47:37;-2.90;99.90
52209;DHT22;38507;53.132;6.394;2022-12-18T10:50:28;-2.90;99.90
52209;DHT22;38507;53.132;6.394;2022-12-18T10:52:56;-2.80;99.90
52209;DHT22;38507;53.132;6.394;2022-12-18T10:55:30;-2.80;99.90
52209;DHT22;38507;53.132;6.394;2022-12-18T10:58:15;-2.80;99.90
52209;DHT22;38507;53.132;6.394;2022-12-18T11:00:42;-2.80;99.90
52209;DHT22;38507;53.132;6.394;2022-12-18T11:06:05;-2.70;99.90
52209;DHT22;38507;53.132;6.394;2022-12-18T11:08:32;-2.70;99.90
52209;DHT22;38507;53.132;6.394;2022-12-18T11:10:58;-2.70;99.90
52209;DHT22;38507;53.132;6.394;2022-12-18T11:13:26;-2.70;99.90
52209;DHT22;38507;53.132;6.394;2022-12-18T11:15:52;-2.70;99.90
52209;DHT22;38507;53.132;6.394;2022-12-18T11:18:27;-2.60;99.90
52209;DHT22;38507;53.132;6.394;2022-12-18T11:20:59;-2.60;99.90
52209;DHT22;38507;53.132;6.394;2022-12-18T11:23:27;-2.60;99.90
52209;DHT22;38507;53.132;6.394;2022-12-18T11:25:58;-2.60;99.90
52209;DHT22;38507;53.132;6.394;2022-12-18T11:28:50;-2.50;99.90
52209;DHT22;38507;53.132;6.394;2022-12-18T11:34:09;-2.50;99.90
52209;DHT22;38507;53.132;6.394;2022-12-18T11:36:46;-2.40;99.90
52209;DHT22;38507;53.132;6.394;2022-12-18T11:39:24;-2.40;99.90
52209;DHT22;38507;53.132;6.394;2022-12-18T11:41:59;-2.40;99.90
52209;DHT22;38507;53.132;6.394;2022-12-18T11:44:50;-2.40;99.90
52209;DHT22;38507;53.132;6.394;2022-12-18T11:47:31;-2.40;99.90
52209;DHT22;38507;53.132;6.394;2022-12-18T11:50:16;-2.40;99.90
52209;DHT22;38507;53.132;6.394;2022-12-18T11:52:43;-2.40;99.90
52209;DHT22;38507;53.132;6.394;2022-12-18T11:55:14;-2.30;99.90
52209;DHT22;38507;53.132;6.394;2022-12-18T12:00:19;-2.30;99.90
52209;DHT22;38507;53.132;6.394;2022-12-18T12:14:06;-2.30;99.90
52209;DHT22;38507;53.132;6.394;2022-12-18T12:17:00;-2.20;99.90
52209;DHT22;38507;53.132;6.394;2022-12-18T12:28:05;-2.20;99.90
52209;DHT22;38507;53.132;6.394;2022-12-18T12:30:35;-2.20;99.90
52209;DHT22;38507;53.132;6.394;2022-12-18T12:36:13;-2.20;99.90
52209;DHT22;38507;53.132;6.394;2022-12-18T12:38:46;-2.10;99.90
52209;DHT22;38507;53.132;6.394;2022-12-18T12:41:19;-2.10;99.90
52209;DHT22;38507;53.132;6.394;2022-12-18T12:44:08;-2.10;99.90
52209;DHT22;38507;53.132;6.394;2022-12-18T12:46:39;-2.10;99.90
52209;DHT22;38507;53.132;6.394;2022-12-18T12:49:27;-2.00;99.90
52209;DHT22;38507;53.132;6.394;2022-12-18T12:52:15;-2.00;99.90
52209;DHT22;38507;53.132;6.394;2022-12-18T12:54:43;-2.00;99.90
52209;DHT22;38507;53.132;6.394;2022-12-18T12:57:23;-2.00;99.90
52209;DHT22;38507;53.132;6.394;2022-12-18T13:00:16;-1.90;99.90
52209;DHT22;38507;53.132;6.394;2022-12-18T13:08:04;-1.90;99.90
52209;DHT22;38507;53.132;6.394;2022-12-18T13:10:33;-1.80;99.90
52209;DHT22;38507;53.132;6.394;2022-12-18T13:13:11;-1.80;99.90
52209;DHT22;38507;53.132;6.394;2022-12-18T13:16:03;-1.80;99.90
52209;DHT22;38507;53.132;6.394;2022-12-18T13:18:29;-1.80;99.90
52209;DHT22;38507;53.132;6.394;2022-12-18T13:25:54;-1.70;99.90
52209;DHT22;38507;53.132;6.394;2022-12-18T13:34:23;-1.60;99.90
52209;DHT22;38507;53.132;6.394;2022-12-18T13:36:50;-1.60;99.90
52209;DHT22;38507;53.132;6.394;2022-12-18T13:41:49;-1.60;99.90
52209;DHT22;38507;53.132;6.394;2022-12-18T13:44:32;-1.60;99.90
52209;DHT22;38507;53.132;6.394;2022-12-18T13:46:59;-1.60;99.90
52209;DHT22;38507;53.132;6.394;2022-12-18T13:49:40;-1.50;99.90
52209;DHT22;38507;53.132;6.394;2022-12-18T13:52:19;-1.50;99.90
52209;DHT22;38507;53.132;6.394;2022-12-18T13:54:56;-1.50;99.90
52209;DHT22;38507;53.132;6.394;2022-12-18T13:57:33;-1.50;99.90
52209;DHT22;38507;53.132;6.394;2022-12-18T14:02:47;-1.40;99.90
52209;DHT22;38507;53.132;6.394;2022-12-18T14:05:30;-1.50;99.90
52209;DHT22;38507;53.132;6.394;2022-12-18T14:08:11;-1.40;99.90
52209;DHT22;38507;53.132;6.394;2022-12-18T14:10:42;-1.40;99.90
52209;DHT22;38507;53.132;6.394;2022-12-18T14:13:11;-1.50;99.90
52209;DHT22;38507;53.132;6.394;2022-12-18T14:15:42;-1.40;99.90
52209;DHT22;38507;53.132;6.394;2022-12-18T14:20:59;-1.50;99.90
52209;DHT22;38507;53.132;6.394;2022-12-18T14:23:38;-1.50;99.90
52209;DHT22;38507;53.132;6.394;2022-12-18T14:28:47;-1.50;99.90
52209;DHT22;38507;53.132;6.394;2022-12-18T14:31:28;-1.50;99.90
52209;DHT22;38507;53.132;6.394;2022-12-18T14:33:55;-1.50;99.90
52209;DHT22;38507;53.132;6.394;2022-12-18T14:36:26;-1.50;99.90
52209;DHT22;38507;53.132;6.394;2022-12-18T14:38:53;-1.50;99.90
52209;DHT22;38507;53.132;6.394;2022-12-18T14:41:20;-1.50;99.90
52209;DHT22;38507;53.132;6.394;2022-12-18T14:43:49;-1.50;99.90
52209;DHT22;38507;53.132;6.394;2022-12-18T14:49:03;-1.50;99.90
52209;DHT22;38507;53.132;6.394;2022-12-18T14:51:31;-1.50;99.90
52209;DHT22;38507;53.132;6.394;2022-12-18T14:54:03;-1.50;99.90
52209;DHT22;38507;53.132;6.394;2022-12-18T14:56:32;-0.50;99.90
52209;DHT22;38507;53.132;6.394;2022-12-18T14:59:13;-1.50;99.90
52209;DHT22;38507;53.132;6.394;2022-12-18T15:01:48;-1.50;99.90
52209;DHT22;38507;53.132;6.394;2022-12-18T15:04:34;-1.50;99.90
52209;DHT22;38507;53.132;6.394;2022-12-18T15:07:21;-1.60;99.90
52209;DHT22;38507;53.132;6.394;2022-12-18T15:15:52;-1.60;99.90
52209;DHT22;38507;53.132;6.394;2022-12-18T15:18:21;-1.60;99.90
52209;DHT22;38507;53.132;6.394;2022-12-18T15:20:54;-1.60;99.90
52209;DHT22;38507;53.132;6.394;2022-12-18T15:23:35;-1.60;99.90
52209;DHT22;38507;53.132;6.394;2022-12-18T15:26:06;-1.60;99.90
52209;DHT22;38507;53.132;6.394;2022-12-18T15:28:47;-1.60;99.90
52209;DHT22;38507;53.132;6.394;2022-12-18T15:33:40;-1.60;99.90
52209;DHT22;38507;53.132;6.394;2022-12-18T15:36:12;-1.70;99.90
52209;DHT22;38507;53.132;6.394;2022-12-18T15:38:37;-1.70;99.90
52209;DHT22;38507;53.132;6.394;2022-12-18T15:41:03;-0.80;99.90
52209;DHT22;38507;53.132;6.394;2022-12-18T15:43:32;-1.70;99.90
52209;DHT22;38507;53.132;6.394;2022-12-18T15:46:13;-1.70;99.90
52209;DHT22;38507;53.132;6.394;2022-12-18T15:48:44;-1.70;99.90
52209;DHT22;38507;53.132;6.394;2022-12-18T15:51:15;-1.70;99.90
52209;DHT22;38507;53.132;6.394;2022-12-18T15:53:42;-1.70;99.90
52209;DHT22;38507;53.132;6.394;2022-12-18T15:56:12;-1.70;99.90
52209;DHT22;38507;53.132;6.394;2022-12-18T15:58:57;-1.70;99.90
52209;DHT22;38507;53.132;6.394;2022-12-18T16:01:28;-1.80;99.90
52209;DHT22;38507;53.132;6.394;2022-12-18T16:03:54;-1.70;99.90
52209;DHT22;38507;53.132;6.394;2022-12-18T16:06:21;-1.80;99.90
52209;DHT22;38507;53.132;6.394;2022-12-18T16:08:47;-1.80;99.90
52209;DHT22;38507;53.132;6.394;2022-12-18T16:11:33;-1.80;99.90
52209;DHT22;38507;53.132;6.394;2022-12-18T16:14:18;-1.80;99.90
52209;DHT22;38507;53.132;6.394;2022-12-18T16:16:46;-1.80;99.90
52209;DHT22;38507;53.132;6.394;2022-12-18T16:19:12;-1.80;99.90
52209;DHT22;38507;53.132;6.394;2022-12-18T16:21:38;-1.80;99.90
52209;DHT22;38507;53.132;6.394;2022-12-18T16:24:04;-1.80;99.90
52209;DHT22;38507;53.132;6.394;2022-12-18T16:26:31;-1.80;99.90
52209;DHT22;38507;53.132;6.394;2022-12-18T16:28:56;-1.80;99.90
52209;DHT22;38507;53.132;6.394;2022-12-18T16:31:22;-1.90;99.90
52209;DHT22;38507;53.132;6.394;2022-12-18T16:33:48;-0.90;99.90
52209;DHT22;38507;53.132;6.394;2022-12-18T16:36:13;-1.80;99.90
52209;DHT22;38507;53.132;6.394;2022-12-18T16:38:39;-1.90;99.90
52209;DHT22;38507;53.132;6.394;2022-12-18T16:41:18;-1.80;99.90
52209;DHT22;38507;53.132;6.394;2022-12-18T16:43:56;-1.80;99.90
52209;DHT22;38507;53.132;6.394;2022-12-18T16:46:22;-1.80;99.90
52209;DHT22;38507;53.132;6.394;2022-12-18T16:48:48;-1.80;99.90
52209;DHT22;38507;53.132;6.394;2022-12-18T16:51:13;-1.80;99.90
52209;DHT22;38507;53.132;6.394;2022-12-18T16:53:40;-1.80;99.90
52209;DHT22;38507;53.132;6.394;2022-12-18T16:56:06;-1.80;99.90
52209;DHT22;38507;53.132;6.394;2022-12-18T16:58:31;-1.70;99.90
52209;DHT22;38507;53.132;6.394;2022-12-18T17:00:57;-0.50;99.90
52209;DHT22;38507;53.132;6.394;2022-12-18T17:03:22;-1.70;99.90
52209;DHT22;38507;53.132;6.394;2022-12-18T17:05:48;-1.70;99.90
52209;DHT22;38507;53.132;6.394;2022-12-18T17:08:14;-1.70;99.90
52209;DHT22;38507;53.132;6.394;2022-12-18T17:10:39;-1.70;99.90
52209;DHT22;38507;53.132;6.394;2022-12-18T17:13:05;-1.70;99.90
52209;DHT22;38507;53.132;6.394;2022-12-18T17:15:34;-1.70;99.90
52209;DHT22;38507;53.132;6.394;2022-12-18T17:18:00;-1.70;99.90
52209;DHT22;38507;53.132;6.394;2022-12-18T17:20:26;-1.70;99.90
52209;DHT22;38507;53.132;6.394;2022-12-18T17:22:52;-1.60;99.90
52209;DHT22;38507;53.132;6.394;2022-12-18T17:25:17;-1.60;99.90
52209;DHT22;38507;53.132;6.394;2022-12-18T17:27:43;-1.60;99.90
52209;DHT22;38507;53.132;6.394;2022-12-18T17:30:09;-1.60;99.90